sensor_id;sensor_type;location;lat;lon;timestamp;P1;durP1;ratioP1;P2;durP2;ratioP2
13026;SDS011;6580;42.680;23.324;2023-08-08T00:00:03;2.50;;;2.10;;
13026;SDS011;6580;42.680;23.324;2023-08-08T00:02:49;2.90;;;1.98;;
13026;SDS011;6580;42.680;23.324;2023-08-08T00:05:36;2.17;;;2.03;;
13026;SDS011;6580;42.680;23.324;2023-08-08T00:08:24;4.43;;;4.05;;
13026;SDS011;6580;42.680;23.324;2023-08-08T00:11:11;9.57;;;8.60;;
13026;SDS011;6580;42.680;23.324;2023-08-08T00:13:58;15.15;;;13.65;;
13026;SDS011;6580;42.680;23.324;2023-08-08T00:16:43;6.72;;;6.13;;
13026;SDS011;6580;42.680;23.324;2023-08-08T00:19:29;7.57;;;6.87;;
13026;SDS011;6580;42.680;23.324;2023-08-08T00:22:15;5.53;;;5.03;;
13026;SDS011;6580;42.680;23.324;2023-08-08T00:25:01;4.53;;;4.13;;
13026;SDS011;6580;42.680;23.324;2023-08-08T00:27:49;3.42;;;3.17;;
13026;SDS011;6580;42.680;23.324;2023-08-08T00:30:36;2.25;;;2.13;;
13026;SDS011;6580;42.680;23.324;2023-08-08T00:33:21;1.87;;;1.77;;
13026;SDS011;6580;42.680;23.324;2023-08-08T00:36:07;1.45;;;1.35;;
13026;SDS011;6580;42.680;23.324;2023-08-08T00:38:53;1.35;;;1.25;;
13026;SDS011;6580;42.680;23.324;2023-08-08T00:41:39;3.27;;;1.63;;
13026;SDS011;6580;42.680;23.324;2023-08-08T00:44:26;1.42;;;1.33;;
13026;SDS011;6580;42.680;23.324;2023-08-08T00:47:11;1.73;;;1.45;;
13026;SDS011;6580;42.680;23.324;2023-08-08T00:49:57;1.10;;;1.07;;
13026;SDS011;6580;42.680;23.324;2023-08-08T00:52:44;0.83;;;0.83;;
13026;SDS011;6580;42.680;23.324;2023-08-08T00:55:30;1.55;;;1.30;;
13026;SDS011;6580;42.680;23.324;2023-08-08T00:58:16;1.60;;;1.50;;
13026;SDS011;6580;42.680;23.324;2023-08-08T01:01:06;1.20;;;1.20;;
13026;SDS011;6580;42.680;23.324;2023-08-08T01:03:52;1.60;;;1.50;;
13026;SDS011;6580;42.680;23.324;2023-08-08T01:06:39;1.38;;;1.27;;
13026;SDS011;6580;42.680;23.324;2023-08-08T01:09:29;1.23;;;1.23;;
13026;SDS011;6580;42.680;23.324;2023-08-08T01:12:21;1.70;;;1.60;;
13026;SDS011;6580;42.680;23.324;2023-08-08T01:15:10;1.38;;;1.27;;
13026;SDS011;6580;42.680;23.324;2023-08-08T01:17:58;1.37;;;1.27;;
13026;SDS011;6580;42.680;23.324;2023-08-08T01:20:44;1.73;;;1.45;;
13026;SDS011;6580;42.680;23.324;2023-08-08T01:23:33;1.37;;;1.27;;
13026;SDS011;6580;42.680;23.324;2023-08-08T01:26:28;1.02;;;1.00;;
13026;SDS011;6580;42.680;23.324;2023-08-08T01:29:14;1.52;;;1.30;;
13026;SDS011;6580;42.680;23.324;2023-08-08T01:31:59;1.23;;;1.20;;
13026;SDS011;6580;42.680;23.324;2023-08-08T01:34:45;1.50;;;1.40;;
13026;SDS011;6580;42.680;23.324;2023-08-08T01:37:35;1.57;;;1.47;;
13026;SDS011;6580;42.680;23.324;2023-08-08T01:40:27;1.55;;;1.42;;
13026;SDS011;6580;42.680;23.324;2023-08-08T01:43:16;6.40;;;2.90;;
13026;SDS011;6580;42.680;23.324;2023-08-08T01:46:03;1.02;;;0.93;;
13026;SDS011;6580;42.680;23.324;2023-08-08T01:48:50;1.37;;;1.27;;
13026;SDS011;6580;42.680;23.324;2023-08-08T01:51:36;1.40;;;1.30;;
13026;SDS011;6580;42.680;23.324;2023-08-08T01:54:21;3.17;;;1.70;;
13026;SDS011;6580;42.680;23.324;2023-08-08T01:57:08;1.60;;;1.50;;
13026;SDS011;6580;42.680;23.324;2023-08-08T01:59:55;1.87;;;1.20;;
13026;SDS011;6580;42.680;23.324;2023-08-08T02:02:41;1.65;;;1.55;;
13026;SDS011;6580;42.680;23.324;2023-08-08T02:05:28;1.70;;;1.60;;
13026;SDS011;6580;42.680;23.324;2023-08-08T02:08:15;1.30;;;1.20;;
13026;SDS011;6580;42.680;23.324;2023-08-08T02:11:00;1.73;;;1.30;;
13026;SDS011;6580;42.680;23.324;2023-08-08T02:13:48;2.73;;;1.60;;
13026;SDS011;6580;42.680;23.324;2023-08-08T02:16:38;1.47;;;1.37;;
13026;SDS011;6580;42.680;23.324;2023-08-08T02:19:25;1.40;;;1.40;;
13026;SDS011;6580;42.680;23.324;2023-08-08T02:22:11;1.98;;;1.85;;
13026;SDS011;6580;42.680;23.324;2023-08-08T02:24:57;1.60;;;1.50;;
13026;SDS011;6580;42.680;23.324;2023-08-08T02:27:43;1.57;;;1.47;;
13026;SDS011;6580;42.680;23.324;2023-08-08T02:30:28;1.70;;;1.60;;
13026;SDS011;6580;42.680;23.324;2023-08-08T02:33:15;2.27;;;2.07;;
13026;SDS011;6580;42.680;23.324;2023-08-08T02:36:02;1.87;;;1.77;;
13026;SDS011;6580;42.680;23.324;2023-08-08T02:38:47;2.17;;;2.07;;
13026;SDS011;6580;42.680;23.324;2023-08-08T02:41:37;1.70;;;1.60;;
13026;SDS011;6580;42.680;23.324;2023-08-08T02:44:22;1.80;;;1.70;;
13026;SDS011;6580;42.680;23.324;2023-08-08T02:47:08;1.30;;;1.30;;
13026;SDS011;6580;42.680;23.324;2023-08-08T02:49:55;1.92;;;1.83;;
13026;SDS011;6580;42.680;23.324;2023-08-08T02:52:40;2.00;;;1.90;;
13026;SDS011;6580;42.680;23.324;2023-08-08T02:55:26;2.10;;;2.00;;
13026;SDS011;6580;42.680;23.324;2023-08-08T02:58:12;1.95;;;1.85;;
13026;SDS011;6580;42.680;23.324;2023-08-08T03:01:03;1.80;;;1.70;;
13026;SDS011;6580;42.680;23.324;2023-08-08T03:03:48;2.25;;;2.08;;
13026;SDS011;6580;42.680;23.324;2023-08-08T03:06:37;2.20;;;2.10;;
13026;SDS011;6580;42.680;23.324;2023-08-08T03:09:23;2.50;;;2.17;;
13026;SDS011;6580;42.680;23.324;2023-08-08T03:12:17;2.35;;;2.22;;
13026;SDS011;6580;42.680;23.324;2023-08-08T03:15:03;2.20;;;2.00;;
13026;SDS011;6580;42.680;23.324;2023-08-08T03:17:49;2.00;;;1.90;;
13026;SDS011;6580;42.680;23.324;2023-08-08T03:20:37;2.83;;;2.63;;
13026;SDS011;6580;42.680;23.324;2023-08-08T03:23:29;2.67;;;2.47;;
13026;SDS011;6580;42.680;23.324;2023-08-08T03:26:16;2.20;;;2.03;;
13026;SDS011;6580;42.680;23.324;2023-08-08T03:29:05;2.22;;;2.10;;
13026;SDS011;6580;42.680;23.324;2023-08-08T03:31:54;2.73;;;2.43;;
13026;SDS011;6580;42.680;23.324;2023-08-08T03:34:40;2.67;;;2.47;;
13026;SDS011;6580;42.680;23.324;2023-08-08T03:37:27;2.80;;;2.60;;
13026;SDS011;6580;42.680;23.324;2023-08-08T03:40:20;2.55;;;2.35;;
13026;SDS011;6580;42.680;23.324;2023-08-08T03:43:08;2.67;;;2.47;;
13026;SDS011;6580;42.680;23.324;2023-08-08T03:45:56;2.60;;;2.40;;
13026;SDS011;6580;42.680;23.324;2023-08-08T03:48:43;2.70;;;2.50;;
13026;SDS011;6580;42.680;23.324;2023-08-08T03:51:28;2.80;;;2.60;;
13026;SDS011;6580;42.680;23.324;2023-08-08T03:54:18;2.85;;;2.65;;
13026;SDS011;6580;42.680;23.324;2023-08-08T03:57:06;4.07;;;2.70;;
13026;SDS011;6580;42.680;23.324;2023-08-08T03:59:53;3.00;;;2.80;;
13026;SDS011;6580;42.680;23.324;2023-08-08T04:02:39;3.00;;;2.72;;
13026;SDS011;6580;42.680;23.324;2023-08-08T04:05:24;3.00;;;2.80;;
13026;SDS011;6580;42.680;23.324;2023-08-08T04:08:10;3.38;;;3.08;;
13026;SDS011;6580;42.680;23.324;2023-08-08T04:10:55;3.45;;;3.25;;
13026;SDS011;6580;42.680;23.324;2023-08-08T04:13:42;3.03;;;2.83;;
13026;SDS011;6580;42.680;23.324;2023-08-08T04:16:27;3.03;;;2.77;;
13026;SDS011;6580;42.680;23.324;2023-08-08T04:19:16;3.50;;;3.20;;
13026;SDS011;6580;42.680;23.324;2023-08-08T04:22:01;3.60;;;3.30;;
13026;SDS011;6580;42.680;23.324;2023-08-08T04:24:49;4.33;;;3.93;;
13026;SDS011;6580;42.680;23.324;2023-08-08T04:27:35;4.10;;;3.80;;
13026;SDS011;6580;42.680;23.324;2023-08-08T04:30:22;4.47;;;4.07;;
13026;SDS011;6580;42.680;23.324;2023-08-08T04:33:07;3.50;;;3.22;;
13026;SDS011;6580;42.680;23.324;2023-08-08T04:35:56;3.83;;;3.50;;
13026;SDS011;6580;42.680;23.324;2023-08-08T04:38:43;3.80;;;3.50;;
13026;SDS011;6580;42.680;23.324;2023-08-08T04:41:30;4.10;;;3.70;;
13026;SDS011;6580;42.680;23.324;2023-08-08T04:44:15;3.47;;;3.23;;
13026;SDS011;6580;42.680;23.324;2023-08-08T04:47:04;3.90;;;3.60;;
13026;SDS011;6580;42.680;23.324;2023-08-08T04:49:49;3.83;;;3.53;;
13026;SDS011;6580;42.680;23.324;2023-08-08T04:52:35;4.03;;;3.50;;
13026;SDS011;6580;42.680;23.324;2023-08-08T04:55:22;3.22;;;3.03;;
13026;SDS011;6580;42.680;23.324;2023-08-08T04:58:07;3.90;;;3.60;;
13026;SDS011;6580;42.680;23.324;2023-08-08T05:00:53;3.53;;;3.10;;
13026;SDS011;6580;42.680;23.324;2023-08-08T05:03:40;3.80;;;3.50;;
13026;SDS011;6580;42.680;23.324;2023-08-08T05:06:26;3.13;;;2.93;;
13026;SDS011;6580;42.680;23.324;2023-08-08T05:09:11;3.67;;;3.42;;
13026;SDS011;6580;42.680;23.324;2023-08-08T05:11:57;3.50;;;3.20;;
13026;SDS011;6580;42.680;23.324;2023-08-08T05:14:43;3.40;;;3.20;;
13026;SDS011;6580;42.680;23.324;2023-08-08T05:17:33;3.60;;;3.30;;
13026;SDS011;6580;42.680;23.324;2023-08-08T05:20:23;3.60;;;3.30;;
13026;SDS011;6580;42.680;23.324;2023-08-08T05:23:09;3.85;;;3.55;;
13026;SDS011;6580;42.680;23.324;2023-08-08T05:25:56;3.58;;;3.28;;
13026;SDS011;6580;42.680;23.324;2023-08-08T05:28:41;3.17;;;2.92;;
13026;SDS011;6580;42.680;23.324;2023-08-08T05:31:27;5.95;;;3.55;;
13026;SDS011;6580;42.680;23.324;2023-08-08T05:34:14;3.88;;;3.58;;
13026;SDS011;6580;42.680;23.324;2023-08-08T05:37:01;6.90;;;3.72;;
13026;SDS011;6580;42.680;23.324;2023-08-08T05:39:47;4.50;;;4.10;;
13026;SDS011;6580;42.680;23.324;2023-08-08T05:42:51;2.90;;;2.70;;
13026;SDS011;6580;42.680;23.324;2023-08-08T05:45:36;2.95;;;2.70;;
13026;SDS011;6580;42.680;23.324;2023-08-08T05:48:21;3.42;;;3.22;;
13026;SDS011;6580;42.680;23.324;2023-08-08T05:51:08;2.78;;;2.60;;
13026;SDS011;6580;42.680;23.324;2023-08-08T05:53:55;2.92;;;2.70;;
13026;SDS011;6580;42.680;23.324;2023-08-08T05:56:40;2.78;;;2.67;;
13026;SDS011;6580;42.680;23.324;2023-08-08T05:59:25;3.15;;;2.85;;
13026;SDS011;6580;42.680;23.324;2023-08-08T06:02:11;2.97;;;2.65;;
13026;SDS011;6580;42.680;23.324;2023-08-08T06:04:56;4.18;;;3.17;;
13026;SDS011;6580;42.680;23.324;2023-08-08T06:07:43;3.40;;;3.20;;
13026;SDS011;6580;42.680;23.324;2023-08-08T06:10:30;3.65;;;2.85;;
13026;SDS011;6580;42.680;23.324;2023-08-08T06:13:16;3.30;;;3.10;;
13026;SDS011;6580;42.680;23.324;2023-08-08T06:16:01;4.18;;;3.25;;
13026;SDS011;6580;42.680;23.324;2023-08-08T06:18:51;3.35;;;3.15;;
13026;SDS011;6580;42.680;23.324;2023-08-08T06:21:36;3.20;;;2.95;;
13026;SDS011;6580;42.680;23.324;2023-08-08T06:24:22;3.28;;;3.08;;
13026;SDS011;6580;42.680;23.324;2023-08-08T06:27:12;3.17;;;2.88;;
13026;SDS011;6580;42.680;23.324;2023-08-08T06:29:58;2.88;;;2.67;;
13026;SDS011;6580;42.680;23.324;2023-08-08T06:32:43;3.15;;;2.83;;
13026;SDS011;6580;42.680;23.324;2023-08-08T06:35:29;2.53;;;2.42;;
13026;SDS011;6580;42.680;23.324;2023-08-08T06:38:14;2.67;;;2.50;;
13026;SDS011;6580;42.680;23.324;2023-08-08T06:41:02;3.20;;;3.00;;
13026;SDS011;6580;42.680;23.324;2023-08-08T06:43:51;2.78;;;2.58;;
13026;SDS011;6580;42.680;23.324;2023-08-08T06:46:36;3.20;;;2.90;;
13026;SDS011;6580;42.680;23.324;2023-08-08T06:49:22;3.03;;;2.83;;
13026;SDS011;6580;42.680;23.324;2023-08-08T06:52:08;2.50;;;2.30;;
13026;SDS011;6580;42.680;23.324;2023-08-08T06:54:53;2.60;;;2.40;;
13026;SDS011;6580;42.680;23.324;2023-08-08T06:57:38;2.40;;;2.30;;
13026;SDS011;6580;42.680;23.324;2023-08-08T07:00:25;2.30;;;2.10;;
13026;SDS011;6580;42.680;23.324;2023-08-08T07:03:12;1.88;;;1.77;;
13026;SDS011;6580;42.680;23.324;2023-08-08T07:05:57;2.50;;;2.30;;
13026;SDS011;6580;42.680;23.324;2023-08-08T07:08:46;2.10;;;2.00;;
13026;SDS011;6580;42.680;23.324;2023-08-08T07:11:31;2.55;;;2.45;;
13026;SDS011;6580;42.680;23.324;2023-08-08T07:14:18;2.20;;;2.10;;
13026;SDS011;6580;42.680;23.324;2023-08-08T07:17:05;2.38;;;2.13;;
13026;SDS011;6580;42.680;23.324;2023-08-08T07:19:50;1.85;;;1.75;;
13026;SDS011;6580;42.680;23.324;2023-08-08T07:22:36;1.90;;;1.75;;
13026;SDS011;6580;42.680;23.324;2023-08-08T07:25:22;2.65;;;2.47;;
13026;SDS011;6580;42.680;23.324;2023-08-08T07:28:07;2.30;;;2.20;;
13026;SDS011;6580;42.680;23.324;2023-08-08T07:30:54;3.92;;;2.78;;
13026;SDS011;6580;42.680;23.324;2023-08-08T07:33:41;2.17;;;2.08;;
13026;SDS011;6580;42.680;23.324;2023-08-08T07:36:27;2.70;;;2.35;;
13026;SDS011;6580;42.680;23.324;2023-08-08T07:39:12;3.35;;;2.85;;
13026;SDS011;6580;42.680;23.324;2023-08-08T07:41:58;3.13;;;2.83;;
13026;SDS011;6580;42.680;23.324;2023-08-08T07:44:44;4.15;;;3.53;;
13026;SDS011;6580;42.680;23.324;2023-08-08T07:47:30;3.47;;;3.17;;
13026;SDS011;6580;42.680;23.324;2023-08-08T07:50:19;3.03;;;2.67;;
13026;SDS011;6580;42.680;23.324;2023-08-08T07:53:06;2.25;;;1.90;;
13026;SDS011;6580;42.680;23.324;2023-08-08T07:55:51;1.23;;;1.15;;
13026;SDS011;6580;42.680;23.324;2023-08-08T07:58:36;1.52;;;1.42;;
13026;SDS011;6580;42.680;23.324;2023-08-08T08:01:22;2.28;;;2.08;;
13026;SDS011;6580;42.680;23.324;2023-08-08T08:04:07;3.38;;;2.72;;
13026;SDS011;6580;42.680;23.324;2023-08-08T08:06:54;2.17;;;1.98;;
13026;SDS011;6580;42.680;23.324;2023-08-08T08:09:39;4.05;;;3.40;;
13026;SDS011;6580;42.680;23.324;2023-08-08T08:12:26;2.83;;;2.63;;
13026;SDS011;6580;42.680;23.324;2023-08-08T08:15:12;1.73;;;1.63;;
13026;SDS011;6580;42.680;23.324;2023-08-08T08:17:58;2.17;;;2.08;;
13026;SDS011;6580;42.680;23.324;2023-08-08T08:20:44;2.08;;;1.98;;
13026;SDS011;6580;42.680;23.324;2023-08-08T08:23:32;1.98;;;1.50;;
13026;SDS011;6580;42.680;23.324;2023-08-08T08:26:17;1.90;;;1.80;;
13026;SDS011;6580;42.680;23.324;2023-08-08T08:29:03;1.55;;;1.45;;
13026;SDS011;6580;42.680;23.324;2023-08-08T08:31:50;2.00;;;1.83;;
13026;SDS011;6580;42.680;23.324;2023-08-08T08:34:35;3.55;;;1.80;;
13026;SDS011;6580;42.680;23.324;2023-08-08T08:37:21;1.98;;;1.83;;
13026;SDS011;6580;42.680;23.324;2023-08-08T08:40:09;1.42;;;1.42;;
13026;SDS011;6580;42.680;23.324;2023-08-08T08:42:57;1.85;;;1.75;;
13026;SDS011;6580;42.680;23.324;2023-08-08T08:45:43;1.85;;;1.75;;
13026;SDS011;6580;42.680;23.324;2023-08-08T08:48:36;2.70;;;2.50;;
13026;SDS011;6580;42.680;23.324;2023-08-08T08:51:25;2.10;;;2.00;;
13026;SDS011;6580;42.680;23.324;2023-08-08T08:54:15;2.20;;;2.00;;
13026;SDS011;6580;42.680;23.324;2023-08-08T08:57:08;2.20;;;2.10;;
13026;SDS011;6580;42.680;23.324;2023-08-08T08:59:54;2.63;;;2.33;;
13026;SDS011;6580;42.680;23.324;2023-08-08T09:02:42;2.90;;;2.70;;
13026;SDS011;6580;42.680;23.324;2023-08-08T09:05:28;2.83;;;2.40;;
13026;SDS011;6580;42.680;23.324;2023-08-08T09:08:17;3.67;;;3.38;;
13026;SDS011;6580;42.680;23.324;2023-08-08T09:11:02;3.28;;;3.00;;
13026;SDS011;6580;42.680;23.324;2023-08-08T09:13:50;2.40;;;1.92;;
13026;SDS011;6580;42.680;23.324;2023-08-08T09:16:39;2.55;;;2.35;;
13026;SDS011;6580;42.680;23.324;2023-08-08T09:19:29;3.38;;;3.13;;
13026;SDS011;6580;42.680;23.324;2023-08-08T09:22:17;2.05;;;1.92;;
13026;SDS011;6580;42.680;23.324;2023-08-08T09:25:04;2.17;;;1.90;;
13026;SDS011;6580;42.680;23.324;2023-08-08T09:27:50;1.77;;;1.67;;
13026;SDS011;6580;42.680;23.324;2023-08-08T09:30:38;1.70;;;1.60;;
13026;SDS011;6580;42.680;23.324;2023-08-08T09:33:23;1.98;;;1.88;;
13026;SDS011;6580;42.680;23.324;2023-08-08T09:36:13;3.03;;;2.83;;
13026;SDS011;6580;42.680;23.324;2023-08-08T09:38:59;2.45;;;2.25;;
13026;SDS011;6580;42.680;23.324;2023-08-08T09:41:45;2.97;;;2.78;;
13026;SDS011;6580;42.680;23.324;2023-08-08T09:44:31;2.13;;;2.03;;
13026;SDS011;6580;42.680;23.324;2023-08-08T09:47:21;2.83;;;2.53;;
13026;SDS011;6580;42.680;23.324;2023-08-08T09:50:07;2.00;;;1.90;;
13026;SDS011;6580;42.680;23.324;2023-08-08T09:52:53;2.13;;;2.03;;
13026;SDS011;6580;42.680;23.324;2023-08-08T09:55:40;2.88;;;2.67;;
13026;SDS011;6580;42.680;23.324;2023-08-08T09:58:26;2.42;;;2.22;;
13026;SDS011;6580;42.680;23.324;2023-08-08T10:01:11;2.50;;;2.30;;
13026;SDS011;6580;42.680;23.324;2023-08-08T10:04:02;2.75;;;2.60;;
13026;SDS011;6580;42.680;23.324;2023-08-08T10:06:52;2.95;;;2.75;;
13026;SDS011;6580;42.680;23.324;2023-08-08T10:09:38;2.20;;;2.03;;
13026;SDS011;6580;42.680;23.324;2023-08-08T10:12:26;2.60;;;1.85;;
13026;SDS011;6580;42.680;23.324;2023-08-08T10:15:12;2.00;;;1.90;;
13026;SDS011;6580;42.680;23.324;2023-08-08T10:17:58;1.60;;;1.55;;
13026;SDS011;6580;42.680;23.324;2023-08-08T10:20:49;1.65;;;1.52;;
13026;SDS011;6580;42.680;23.324;2023-08-08T10:23:37;2.20;;;1.70;;
13026;SDS011;6580;42.680;23.324;2023-08-08T10:26:24;2.72;;;2.53;;
13026;SDS011;6580;42.680;23.324;2023-08-08T10:29:17;2.22;;;2.03;;
13026;SDS011;6580;42.680;23.324;2023-08-08T10:32:05;2.78;;;2.40;;
13026;SDS011;6580;42.680;23.324;2023-08-08T10:34:54;2.30;;;2.20;;
13026;SDS011;6580;42.680;23.324;2023-08-08T10:37:52;2.00;;;1.90;;
13026;SDS011;6580;42.680;23.324;2023-08-08T10:40:42;2.40;;;2.20;;
13026;SDS011;6580;42.680;23.324;2023-08-08T10:43:28;3.10;;;2.90;;
13026;SDS011;6580;42.680;23.324;2023-08-08T10:46:22;2.17;;;2.08;;
13026;SDS011;6580;42.680;23.324;2023-08-08T10:49:10;1.80;;;1.70;;
13026;SDS011;6580;42.680;23.324;2023-08-08T10:52:02;1.90;;;1.80;;
13026;SDS011;6580;42.680;23.324;2023-08-08T10:54:52;2.47;;;2.17;;
13026;SDS011;6580;42.680;23.324;2023-08-08T10:57:38;1.73;;;1.63;;
13026;SDS011;6580;42.680;23.324;2023-08-08T11:00:25;1.38;;;1.38;;
13026;SDS011;6580;42.680;23.324;2023-08-08T11:03:12;1.55;;;1.13;;
13026;SDS011;6580;42.680;23.324;2023-08-08T11:05:59;2.45;;;2.25;;
13026;SDS011;6580;42.680;23.324;2023-08-08T11:08:47;2.10;;;2.00;;
13026;SDS011;6580;42.680;23.324;2023-08-08T11:11:36;2.00;;;1.88;;
13026;SDS011;6580;42.680;23.324;2023-08-08T11:14:23;1.67;;;1.58;;
13026;SDS011;6580;42.680;23.324;2023-08-08T11:17:10;1.27;;;1.27;;
13026;SDS011;6580;42.680;23.324;2023-08-08T11:19:56;1.45;;;1.40;;
13026;SDS011;6580;42.680;23.324;2023-08-08T11:22:42;1.60;;;1.45;;
13026;SDS011;6580;42.680;23.324;2023-08-08T11:25:28;1.92;;;1.83;;
13026;SDS011;6580;42.680;23.324;2023-08-08T11:28:17;2.83;;;2.58;;
13026;SDS011;6580;42.680;23.324;2023-08-08T11:31:02;1.73;;;1.70;;
13026;SDS011;6580;42.680;23.324;2023-08-08T11:33:48;1.25;;;1.25;;
13026;SDS011;6580;42.680;23.324;2023-08-08T11:36:33;3.20;;;2.88;;
13026;SDS011;6580;42.680;23.324;2023-08-08T11:39:20;2.08;;;1.95;;
13026;SDS011;6580;42.680;23.324;2023-08-08T11:42:06;1.75;;;1.65;;
13026;SDS011;6580;42.680;23.324;2023-08-08T11:44:56;2.58;;;2.38;;
13026;SDS011;6580;42.680;23.324;2023-08-08T11:47:48;2.90;;;2.70;;
13026;SDS011;6580;42.680;23.324;2023-08-08T11:50:37;8.43;;;7.57;;
13026;SDS011;6580;42.680;23.324;2023-08-08T11:53:26;4.93;;;4.47;;
13026;SDS011;6580;42.680;23.324;2023-08-08T11:56:11;2.47;;;2.38;;
13026;SDS011;6580;42.680;23.324;2023-08-08T11:59:00;1.17;;;1.17;;
13026;SDS011;6580;42.680;23.324;2023-08-08T12:01:48;1.38;;;1.35;;
13026;SDS011;6580;42.680;23.324;2023-08-08T12:04:34;1.40;;;1.30;;
13026;SDS011;6580;42.680;23.324;2023-08-08T12:07:22;1.58;;;1.50;;
13026;SDS011;6580;42.680;23.324;2023-08-08T12:10:13;1.95;;;1.77;;
13026;SDS011;6580;42.680;23.324;2023-08-08T12:13:00;1.70;;;1.60;;
13026;SDS011;6580;42.680;23.324;2023-08-08T12:15:45;2.22;;;1.80;;
13026;SDS011;6580;42.680;23.324;2023-08-08T12:18:32;1.48;;;1.38;;
13026;SDS011;6580;42.680;23.324;2023-08-08T12:21:18;1.25;;;1.17;;
13026;SDS011;6580;42.680;23.324;2023-08-08T12:24:04;1.13;;;1.13;;
13026;SDS011;6580;42.680;23.324;2023-08-08T12:26:50;1.02;;;1.02;;
13026;SDS011;6580;42.680;23.324;2023-08-08T12:29:36;1.92;;;1.83;;
13026;SDS011;6580;42.680;23.324;2023-08-08T12:32:25;5.65;;;4.75;;
13026;SDS011;6580;42.680;23.324;2023-08-08T12:35:13;1.80;;;1.70;;
13026;SDS011;6580;42.680;23.324;2023-08-08T12:38:03;2.60;;;2.40;;
13026;SDS011;6580;42.680;23.324;2023-08-08T12:40:49;1.83;;;1.73;;
13026;SDS011;6580;42.680;23.324;2023-08-08T12:43:36;1.73;;;1.63;;
13026;SDS011;6580;42.680;23.324;2023-08-08T12:46:22;1.20;;;1.20;;
13026;SDS011;6580;42.680;23.324;2023-08-08T12:49:08;4.68;;;4.22;;
13026;SDS011;6580;42.680;23.324;2023-08-08T12:51:55;2.28;;;2.17;;
13026;SDS011;6580;42.680;23.324;2023-08-08T12:54:41;1.70;;;1.60;;
13026;SDS011;6580;42.680;23.324;2023-08-08T12:57:26;1.88;;;1.77;;
13026;SDS011;6580;42.680;23.324;2023-08-08T13:00:13;4.32;;;3.97;;
13026;SDS011;6580;42.680;23.324;2023-08-08T13:02:59;3.42;;;3.17;;
13026;SDS011;6580;42.680;23.324;2023-08-08T13:05:46;1.98;;;1.88;;
13026;SDS011;6580;42.680;23.324;2023-08-08T13:08:33;2.10;;;1.90;;
13026;SDS011;6580;42.680;23.324;2023-08-08T13:11:19;2.22;;;2.13;;
13026;SDS011;6580;42.680;23.324;2023-08-08T13:14:05;1.70;;;1.60;;
13026;SDS011;6580;42.680;23.324;2023-08-08T13:16:51;3.38;;;2.70;;
13026;SDS011;6580;42.680;23.324;2023-08-08T13:19:37;2.05;;;1.95;;
13026;SDS011;6580;42.680;23.324;2023-08-08T13:22:23;2.10;;;2.00;;
13026;SDS011;6580;42.680;23.324;2023-08-08T13:25:10;1.95;;;1.85;;
13026;SDS011;6580;42.680;23.324;2023-08-08T13:28:02;2.55;;;2.08;;
13026;SDS011;6580;42.680;23.324;2023-08-08T13:30:48;1.60;;;1.50;;
13026;SDS011;6580;42.680;23.324;2023-08-08T13:33:34;2.30;;;2.13;;
13026;SDS011;6580;42.680;23.324;2023-08-08T13:36:20;2.08;;;1.98;;
13026;SDS011;6580;42.680;23.324;2023-08-08T13:39:08;3.55;;;2.40;;
13026;SDS011;6580;42.680;23.324;2023-08-08T13:41:56;2.60;;;1.80;;
13026;SDS011;6580;42.680;23.324;2023-08-08T13:44:43;3.38;;;2.70;;
13026;SDS011;6580;42.680;23.324;2023-08-08T13:47:30;2.45;;;2.25;;
13026;SDS011;6580;42.680;23.324;2023-08-08T13:50:15;2.00;;;1.90;;
13026;SDS011;6580;42.680;23.324;2023-08-08T13:53:01;2.10;;;2.00;;
13026;SDS011;6580;42.680;23.324;2023-08-08T13:55:51;1.90;;;1.80;;
13026;SDS011;6580;42.680;23.324;2023-08-08T13:58:39;3.40;;;1.95;;
13026;SDS011;6580;42.680;23.324;2023-08-08T14:01:25;2.30;;;2.20;;
13026;SDS011;6580;42.680;23.324;2023-08-08T14:04:11;2.17;;;1.98;;
13026;SDS011;6580;42.680;23.324;2023-08-08T14:06:57;2.78;;;2.58;;
13026;SDS011;6580;42.680;23.324;2023-08-08T14:09:46;2.00;;;1.90;;
13026;SDS011;6580;42.680;23.324;2023-08-08T14:12:33;1.73;;;1.63;;
13026;SDS011;6580;42.680;23.324;2023-08-08T14:15:22;1.90;;;1.80;;
13026;SDS011;6580;42.680;23.324;2023-08-08T14:18:19;1.60;;;1.50;;
13026;SDS011;6580;42.680;23.324;2023-08-08T14:21:05;2.63;;;1.60;;
13026;SDS011;6580;42.680;23.324;2023-08-08T14:23:51;2.15;;;2.05;;
13026;SDS011;6580;42.680;23.324;2023-08-08T14:26:37;1.75;;;1.70;;
13026;SDS011;6580;42.680;23.324;2023-08-08T14:29:22;2.22;;;2.03;;
13026;SDS011;6580;42.680;23.324;2023-08-08T14:32:11;1.60;;;1.50;;
13026;SDS011;6580;42.680;23.324;2023-08-08T14:34:57;1.95;;;1.85;;
13026;SDS011;6580;42.680;23.324;2023-08-08T14:37:45;2.40;;;2.28;;
13026;SDS011;6580;42.680;23.324;2023-08-08T14:40:30;1.60;;;1.50;;
13026;SDS011;6580;42.680;23.324;2023-08-08T14:43:18;1.77;;;1.67;;
13026;SDS011;6580;42.680;23.324;2023-08-08T14:46:08;2.17;;;1.45;;
13026;SDS011;6580;42.680;23.324;2023-08-08T14:48:58;2.10;;;1.95;;
13026;SDS011;6580;42.680;23.324;2023-08-08T14:51:43;3.10;;;2.20;;
13026;SDS011;6580;42.680;23.324;2023-08-08T14:54:29;2.95;;;2.00;;
13026;SDS011;6580;42.680;23.324;2023-08-08T14:57:14;3.00;;;2.70;;
13026;SDS011;6580;42.680;23.324;2023-08-08T15:00:00;2.13;;;2.03;;
13026;SDS011;6580;42.680;23.324;2023-08-08T15:02:53;1.80;;;1.70;;
13026;SDS011;6580;42.680;23.324;2023-08-08T15:05:40;4.55;;;2.30;;
13026;SDS011;6580;42.680;23.324;2023-08-08T15:08:25;2.25;;;2.08;;
13026;SDS011;6580;42.680;23.324;2023-08-08T15:11:10;2.25;;;2.15;;
13026;SDS011;6580;42.680;23.324;2023-08-08T15:13:56;2.13;;;1.92;;
13026;SDS011;6580;42.680;23.324;2023-08-08T15:16:41;2.03;;;1.88;;
13026;SDS011;6580;42.680;23.324;2023-08-08T15:19:32;1.70;;;1.60;;
13026;SDS011;6580;42.680;23.324;2023-08-08T15:22:20;1.95;;;1.85;;
13026;SDS011;6580;42.680;23.324;2023-08-08T15:25:07;2.10;;;2.00;;
13026;SDS011;6580;42.680;23.324;2023-08-08T15:27:53;1.75;;;1.65;;
13026;SDS011;6580;42.680;23.324;2023-08-08T15:30:40;1.98;;;1.70;;
13026;SDS011;6580;42.680;23.324;2023-08-08T15:33:26;2.67;;;2.38;;
13026;SDS011;6580;42.680;23.324;2023-08-08T15:36:12;1.85;;;1.75;;
13026;SDS011;6580;42.680;23.324;2023-08-08T15:38:59;2.08;;;1.98;;
13026;SDS011;6580;42.680;23.324;2023-08-08T15:41:46;4.72;;;3.72;;
13026;SDS011;6580;42.680;23.324;2023-08-08T15:44:32;3.15;;;2.17;;
13026;SDS011;6580;42.680;23.324;2023-08-08T15:47:19;3.10;;;2.80;;
13026;SDS011;6580;42.680;23.324;2023-08-08T15:50:05;4.65;;;4.25;;
13026;SDS011;6580;42.680;23.324;2023-08-08T15:52:52;3.38;;;2.58;;
13026;SDS011;6580;42.680;23.324;2023-08-08T15:55:42;1.85;;;1.73;;
13026;SDS011;6580;42.680;23.324;2023-08-08T15:58:28;3.88;;;3.10;;
13026;SDS011;6580;42.680;23.324;2023-08-08T16:01:14;2.45;;;2.10;;
13026;SDS011;6580;42.680;23.324;2023-08-08T16:04:00;2.90;;;2.70;;
13026;SDS011;6580;42.680;23.324;2023-08-08T16:06:46;3.15;;;2.10;;
13026;SDS011;6580;42.680;23.324;2023-08-08T16:09:32;2.88;;;2.60;;
13026;SDS011;6580;42.680;23.324;2023-08-08T16:12:19;4.10;;;3.70;;
13026;SDS011;6580;42.680;23.324;2023-08-08T16:15:07;1.73;;;1.63;;
13026;SDS011;6580;42.680;23.324;2023-08-08T16:17:53;2.58;;;2.47;;
13026;SDS011;6580;42.680;23.324;2023-08-08T16:20:39;2.38;;;2.17;;
13026;SDS011;6580;42.680;23.324;2023-08-08T16:23:24;2.28;;;2.08;;
13026;SDS011;6580;42.680;23.324;2023-08-08T16:26:10;5.45;;;4.95;;
13026;SDS011;6580;42.680;23.324;2023-08-08T16:28:58;3.05;;;2.85;;
13026;SDS011;6580;42.680;23.324;2023-08-08T16:31:45;3.30;;;3.10;;
13026;SDS011;6580;42.680;23.324;2023-08-08T16:34:31;1.98;;;1.88;;
13026;SDS011;6580;42.680;23.324;2023-08-08T16:37:17;2.25;;;2.05;;
13026;SDS011;6580;42.680;23.324;2023-08-08T16:40:03;5.65;;;4.93;;
13026;SDS011;6580;42.680;23.324;2023-08-08T16:42:49;2.10;;;2.00;;
13026;SDS011;6580;42.680;23.324;2023-08-08T16:45:39;1.95;;;1.85;;